Time;durP1;ratioP1;P1;durP2;ratioP2;P2;SDS_P1;SDS_P2;PMS_P1;PMS_P2;Temp;Humidity;BMP_temperature;BMP_pressure;BME280_temperature;BME280_humidity;BME280_pressure;Samples;Min_cycle;Max_cycle;Signal;HPM_P1;HPM_P2
2023/04/15 00:01:33;;;;;;;0.10;0.10;;;;;;;10.60;55.88;100908.31;5071535;28;20025;-84
2023/04/15 00:03:59;;;;;;;0.17;0.17;;;;;;;10.55;56.89;100912.84;5070433;28;20025;-83
2023/04/15 00:06:25;;;;;;;0.10;0.10;;;;;;;10.49;56.43;100913.81;5073346;28;20437;-83
2023/04/15 00:08:51;;;;;;;0.10;0.10;;;;;;;10.41;56.52;100910.44;5072442;28;20025;-83
2023/04/15 00:11:18;;;;;;;0.20;0.20;;;;;;;10.33;56.80;100918.47;5072289;28;20032;-83
2023/04/15 00:13:45;;;;;;;0.10;0.10;;;;;;;10.26;56.96;100920.38;5065490;28;20033;-83
2023/04/15 00:16:11;;;;;;;0.10;0.10;;;;;;;10.19;57.13;100924.00;5062724;28;20050;-83
2023/04/15 00:18:37;;;;;;;0.10;0.10;;;;;;;10.13;56.40;100925.00;5067413;28;20078;-83
2023/04/15 00:21:04;;;;;;;0.43;0.43;;;;;;;10.07;56.87;100918.94;5056828;28;20548;-83
2023/04/15 00:23:31;;;;;;;0.00;0.00;;;;;;;10.00;56.91;100916.38;5064111;28;20593;-83
2023/04/15 00:25:57;;;;;;;0.10;0.10;;;;;;;9.96;56.49;100916.47;5069870;28;20441;-83
2023/04/15 00:28:23;;;;;;;1.95;1.23;;;;;;;9.92;56.62;100918.28;5065141;28;20028;-83
2023/04/15 00:30:49;;;;;;;0.10;0.10;;;;;;;9.86;57.15;100923.69;5071562;28;20025;-83
2023/04/15 00:33:16;;;;;;;0.25;0.25;;;;;;;9.82;57.03;100916.66;5066903;28;20025;-83
2023/04/15 00:35:42;;;;;;;0.10;0.10;;;;;;;9.77;56.74;100924.72;5069642;28;20028;-83
2023/04/15 00:38:08;;;;;;;0.65;0.65;;;;;;;9.72;56.62;100921.25;5071354;28;20055;-83
2023/04/15 00:40:35;;;;;;;0.10;0.10;;;;;;;9.68;57.33;100919.53;5072072;28;20032;-83
2023/04/15 00:43:02;;;;;;;0.10;0.10;;;;;;;9.64;57.42;100931.94;5070006;28;20445;-83
2023/04/15 00:45:29;;;;;;;0.40;0.40;;;;;;;9.61;57.23;100932.00;5067767;28;20619;-83
2023/04/15 00:47:55;;;;;;;0.20;0.20;;;;;;;9.60;57.53;100927.59;5071788;28;20060;-83
2023/04/15 00:50:22;;;;;;;0.10;0.10;;;;;;;9.58;57.22;100924.09;5047675;28;20029;-83
2023/04/15 00:52:48;;;;;;;0.10;0.10;;;;;;;9.57;57.91;100930.28;5066663;28;20094;-83
2023/04/15 00:55:14;;;;;;;0.10;0.10;;;;;;;9.55;57.12;100929.44;5072601;28;20029;-83
2023/04/15 00:57:41;;;;;;;0.10;0.10;;;;;;;9.52;57.68;100929.47;5076172;28;20032;-83
2023/04/15 01:00:08;;;;;;;0.35;0.35;;;;;;;9.48;57.56;100927.75;5075123;28;20492;-83
2023/04/15 01:02:35;;;;;;;0.10;0.10;;;;;;;9.47;57.05;100926.00;5074327;28;20039;-83
2023/04/15 01:05:03;;;;;;;0.10;0.10;;;;;;;9.44;57.63;100926.94;5071084;28;20028;-83
2023/04/15 01:07:29;;;;;;;0.13;0.13;;;;;;;9.43;57.03;100919.03;5071701;28;20860;-83
2023/04/15 01:09:56;;;;;;;0.13;0.13;;;;;;;9.43;56.47;100921.66;5073067;28;20020;-83
2023/04/15 01:12:23;;;;;;;0.10;0.10;;;;;;;9.41;57.05;100928.75;5073636;28;20026;-83
2023/04/15 01:14:50;;;;;;;0.10;0.10;;;;;;;9.38;57.22;100927.00;5066389;28;20036;-82
2023/04/15 01:17:16;;;;;;;0.20;0.20;;;;;;;9.36;57.18;100923.53;5074258;28;20025;-82
2023/04/15 01:19:42;;;;;;;0.40;0.40;;;;;;;9.33;57.27;100921.81;5074325;28;20048;-82
2023/04/15 01:22:09;;;;;;;0.10;0.10;;;;;;;9.30;57.75;100928.91;5074442;28;20394;-82
2023/04/15 01:24:35;;;;;;;0.08;0.08;;;;;;;9.30;57.35;100921.84;5073649;28;20024;-81
2023/04/15 01:27:03;;;;;;;0.20;0.20;;;;;;;9.29;57.74;100930.66;5073642;28;20020;-81
2023/04/15 01:29:31;;;;;;;0.10;0.10;;;;;;;9.26;57.61;100937.75;5074314;28;20172;-81
2023/04/15 01:31:58;;;;;;;0.10;0.10;;;;;;;9.24;57.27;100932.50;5068338;28;20025;-82
2023/04/15 01:34:24;;;;;;;0.25;0.25;;;;;;;9.22;57.73;100936.91;5073662;28;20498;-82
2023/04/15 01:36:50;;;;;;;0.10;0.10;;;;;;;9.20;58.26;100930.78;5073642;28;20048;-82
2023/04/15 01:39:16;;;;;;;0.10;0.10;;;;;;;9.17;57.74;100933.47;5072030;28;20036;-82
2023/04/15 01:41:43;;;;;;;0.10;0.10;;;;;;;9.15;57.56;100935.28;5064242;28;20040;-82
2023/04/15 01:44:09;;;;;;;0.10;0.10;;;;;;;9.13;57.02;100939.69;5074052;28;20449;-82
2023/04/15 01:46:35;;;;;;;1.17;1.17;;;;;;;9.10;57.91;100940.59;5071197;28;20033;-82
2023/04/15 01:49:02;;;;;;;0.10;0.10;;;;;;;9.09;57.84;100943.28;5071794;28;20062;-82
2023/04/15 01:51:28;;;;;;;0.10;0.10;;;;;;;9.07;57.83;100940.63;5074986;28;20105;-82
2023/04/15 01:53:57;;;;;;;0.10;0.10;;;;;;;9.03;58.14;100942.47;5074315;28;20035;-83
2023/04/15 01:56:24;;;;;;;0.68;0.68;;;;;;;9.02;57.22;100945.09;5078386;28;20027;-82
2023/04/15 01:58:50;;;;;;;0.25;0.25;;;;;;;8.99;58.55;100940.72;5085127;28;20017;-82
2023/04/15 02:01:18;;;;;;;0.10;0.10;;;;;;;8.96;58.23;100940.78;5072004;28;20029;-82
2023/04/15 02:03:45;;;;;;;0.10;0.10;;;;;;;8.94;57.60;100947.84;5074802;28;20020;-82
2023/04/15 02:06:11;;;;;;;0.10;0.10;;;;;;;8.93;58.61;100943.44;5075296;28;20517;-82
2023/04/15 02:08:37;;;;;;;0.10;0.10;;;;;;;8.90;58.50;100946.13;5076325;28;20039;-83
2023/04/15 02:11:04;;;;;;;0.10;0.10;;;;;;;8.87;58.65;100949.69;5075582;28;20013;-82
2023/04/15 02:13:30;;;;;;;0.10;0.10;;;;;;;8.87;58.74;100954.06;5075627;28;20028;-82
2023/04/15 02:15:56;;;;;;;0.10;0.10;;;;;;;8.85;59.36;100943.53;5074482;28;20095;-83
2023/04/15 02:18:22;;;;;;;0.10;0.10;;;;;;;8.84;58.62;100946.19;5071789;28;20024;-82
2023/04/15 02:20:51;;;;;;;0.57;0.43;;;;;;;8.84;58.18;100952.34;5071983;28;20448;-82
2023/04/15 02:23:18;;;;;;;0.10;0.10;;;;;;;8.83;58.19;100940.03;5073773;28;20020;-83
2023/04/15 02:25:44;;;;;;;0.10;0.10;;;;;;;8.81;58.32;100949.75;5074853;28;20035;-83
2023/04/15 02:28:10;;;;;;;0.10;0.10;;;;;;;8.81;58.04;100946.22;5075426;28;20457;-82
2023/04/15 02:30:36;;;;;;;0.10;0.10;;;;;;;8.79;58.61;100954.16;5063252;28;20084;-83
2023/04/15 02:33:03;;;;;;;0.10;0.10;;;;;;;8.78;58.66;100957.69;5076124;28;20036;-82
2023/04/15 02:35:30;;;;;;;0.10;0.10;;;;;;;8.75;58.34;100952.47;5067914;28;20025;-83
2023/04/15 02:37:56;;;;;;;0.10;0.10;;;;;;;8.76;58.04;100961.25;5067543;28;20287;-83
2023/04/15 02:40:22;;;;;;;0.10;0.10;;;;;;;8.73;58.38;100965.69;5063359;28;20033;-82
2023/04/15 02:42:48;;;;;;;0.10;0.10;;;;;;;8.71;58.68;100972.75;5067986;28;20031;-83
2023/04/15 02:45:14;;;;;;;0.10;0.10;;;;;;;8.68;59.40;100975.41;5065446;28;20137;-83
2023/04/15 02:47:40;;;;;;;0.10;0.10;;;;;;;8.68;58.89;100977.19;5069560;28;20033;-82
2023/04/15 02:50:11;;;;;;;0.10;0.10;;;;;;;8.68;58.89;100977.19;5075814;28;20025;-83
2023/04/15 02:52:38;;;;;;;0.10;0.10;;;;;;;8.65;59.13;100983.38;5072480;28;20029;-83
2023/04/15 02:55:05;;;;;;;0.20;0.20;;;;;;;8.66;58.58;100985.13;5074741;28;20028;-84
2023/04/15 02:57:31;;;;;;;0.10;0.10;;;;;;;8.64;58.89;100992.19;5069178;28;20040;-82
2023/04/15 02:59:57;;;;;;;0.10;0.10;;;;;;;8.61;58.87;100994.88;5070193;28;20028;-83
2023/04/15 03:02:24;;;;;;;0.10;0.10;;;;;;;8.58;59.11;100987.84;5075405;28;20451;-83
2023/04/15 03:04:50;;;;;;;0.10;0.10;;;;;;;8.55;59.21;100987.88;5075315;28;20029;-84
2023/04/15 03:07:17;;;;;;;0.10;0.10;;;;;;;8.53;59.26;100991.41;5075660;28;20026;-83
2023/04/15 03:09:44;;;;;;;0.57;0.57;;;;;;;8.50;59.54;100994.06;5071675;28;20104;-83
2023/04/15 03:12:10;;;;;;;0.10;0.10;;;;;;;8.48;59.56;100986.16;5074860;28;20044;-83
2023/04/15 03:14:36;;;;;;;0.10;0.10;;;;;;;8.46;59.47;100992.31;5055889;28;20158;-83
2023/04/15 03:17:02;;;;;;;0.10;0.10;;;;;;;8.43;59.06;100993.22;5073666;28;20029;-83
2023/04/15 03:19:28;;;;;;;0.00;0.00;;;;;;;8.42;58.87;100996.75;5075267;28;20021;-83
2023/04/15 03:21:54;;;;;;;0.10;0.10;;;;;;;8.39;58.82;100997.66;5075631;28;20032;-83
2023/04/15 03:24:20;;;;;;;0.10;0.10;;;;;;;8.37;59.03;100996.81;5074508;28;20040;-83
2023/04/15 03:26:46;;;;;;;0.10;0.10;;;;;;;8.36;59.55;101002.97;5074059;28;20603;-83
2023/04/15 03:29:12;;;;;;;0.10;0.10;;;;;;;8.32;60.13;101003.88;5075238;28;20043;-83
2023/04/15 03:31:38;;;;;;;0.10;0.10;;;;;;;8.30;59.43;101002.13;5070898;28;20028;-83
2023/04/15 03:34:04;;;;;;;0.10;0.10;;;;;;;8.28;59.81;101010.06;5074651;28;20029;-83
2023/04/15 03:36:32;;;;;;;0.10;0.10;;;;;;;8.27;59.04;101018.88;5074361;28;20028;-82
2023/04/15 03:38:58;;;;;;;0.10;0.10;;;;;;;8.25;58.96;101018.88;5075905;28;20441;-82
2023/04/15 03:41:25;;;;;;;0.10;0.10;;;;;;;8.26;60.24;101017.13;5072941;28;20060;-82
2023/04/15 03:43:51;;;;;;;0.10;0.10;;;;;;;8.23;59.04;101019.78;5075057;28;20422;-82
2023/04/15 03:46:18;;;;;;;0.10;0.10;;;;;;;8.21;60.23;101022.44;5072402;28;20062;-83
2023/04/15 03:48:44;;;;;;;0.10;0.10;;;;;;;8.19;59.47;101020.72;5074536;28;20386;-82
2023/04/15 03:51:10;;;;;;;0.10;0.10;;;;;;;8.18;59.72;101027.72;5074682;28;20017;-83
2023/04/15 03:53:36;;;;;;;0.10;0.10;;;;;;;8.17;59.42;101027.75;5075319;28;20501;-83
2023/04/15 03:56:02;;;;;;;0.10;0.10;;;;;;;8.16;60.02;101031.28;5074274;28;20273;-83
2023/04/15 03:58:28;;;;;;;0.10;0.10;;;;;;;8.15;59.30;101034.78;5070940;28;20033;-83
2023/04/15 04:00:55;;;;;;;0.10;0.10;;;;;;;8.13;59.89;101034.81;5072802;28;20075;-83
2023/04/15 04:03:21;;;;;;;0.32;0.32;;;;;;;8.12;59.97;101034.84;5076481;28;20024;-82
2023/04/15 04:05:47;;;;;;;0.32;0.32;;;;;;;8.09;59.94;101039.22;5072057;28;20029;-82
2023/04/15 04:08:15;;;;;;;0.20;0.20;;;;;;;8.08;60.09;101040.13;5080781;28;20166;-83
2023/04/15 04:10:41;;;;;;;0.10;0.10;;;;;;;8.06;59.75;101047.19;5082090;28;20016;-82
2023/04/15 04:13:07;;;;;;;0.20;0.20;;;;;;;8.04;60.23;101048.09;5077622;28;20025;-83
2023/04/15 04:15:33;;;;;;;0.10;0.10;;;;;;;8.01;60.44;101048.97;5075770;28;20118;-82
2023/04/15 04:17:59;;;;;;;0.10;0.10;;;;;;;7.99;60.70;101056.00;5077311;28;20036;-82
2023/04/15 04:20:25;;;;;;;0.10;0.10;;;;;;;7.97;60.64;101055.13;5077369;28;20025;-82
2023/04/15 04:22:52;;;;;;;0.10;0.10;;;;;;;7.94;60.81;101060.44;5076996;28;20035;-82
2023/04/15 04:25:18;;;;;;;1.75;1.35;;;;;;;7.93;60.53;101061.31;5077204;28;20579;-81
2023/04/15 04:27:44;;;;;;;0.10;0.10;;;;;;;7.89;60.97;101062.25;5077898;28;20032;-82
2023/04/15 04:30:11;;;;;;;0.10;0.10;;;;;;;7.88;61.21;101066.63;5077907;28;20597;-83
2023/04/15 04:32:37;;;;;;;0.20;0.20;;;;;;;7.87;61.08;101066.63;5076693;28;20391;-82
2023/04/15 04:35:04;;;;;;;0.13;0.13;;;;;;;7.86;61.06;101073.69;5076344;28;20032;-82
2023/04/15 04:37:30;;;;;;;0.10;0.10;;;;;;;7.87;61.03;101082.47;5075985;28;20020;-83
2023/04/15 04:39:56;;;;;;;0.10;0.10;;;;;;;7.87;60.80;101079.81;5074988;28;20063;-82
2023/04/15 04:42:22;;;;;;;0.10;0.10;;;;;;;7.86;61.49;101086.88;5072447;28;20028;-83
2023/04/15 04:44:48;;;;;;;0.10;0.10;;;;;;;7.85;60.73;101082.47;5076554;28;20561;-83
2023/04/15 04:47:14;;;;;;;0.10;0.10;;;;;;;7.86;61.43;101093.91;5074512;28;20601;-83
2023/04/15 04:49:41;;;;;;;0.10;0.10;;;;;;;7.85;61.37;101095.66;5076933;28;20027;-83
2023/04/15 04:52:07;;;;;;;0.10;0.10;;;;;;;7.85;60.64;101100.06;5075884;28;20103;-82
2023/04/15 04:54:33;;;;;;;0.10;0.10;;;;;;;7.83;61.08;101100.06;5075204;28;20064;-82
2023/04/15 04:56:59;;;;;;;0.10;0.10;;;;;;;7.83;61.90;101107.97;5070182;28;20058;-83
2023/04/15 04:59:25;;;;;;;0.10;0.10;;;;;;;7.84;61.24;101111.47;5076486;28;20033;-82
2023/04/15 05:01:52;;;;;;;0.10;0.10;;;;;;;7.82;60.79;101110.63;5072287;28;20402;-82
2023/04/15 05:04:18;;;;;;;0.22;0.22;;;;;;;7.82;60.59;101119.41;5076351;28;20036;-85
2023/04/15 05:06:44;;;;;;;0.20;0.20;;;;;;;7.81;61.72;101120.28;5076808;28;20032;-85
2023/04/15 05:09:10;;;;;;;0.10;0.10;;;;;;;7.81;61.31;101128.19;5076536;28;20056;-84
2023/04/15 05:11:36;;;;;;;0.10;0.10;;;;;;;7.81;61.65;101124.69;5075600;28;20017;-84
2023/04/15 05:14:02;;;;;;;0.10;0.10;;;;;;;7.81;61.34;101133.47;5076635;28;20024;-84
2023/04/15 05:16:29;;;;;;;0.10;0.10;;;;;;;7.82;61.51;101135.25;5069162;28;20025;-82
2023/04/15 05:18:55;;;;;;;0.10;0.10;;;;;;;7.84;61.05;101137.88;5076615;28;20040;-83
2023/04/15 05:21:22;;;;;;;0.20;0.20;;;;;;;7.86;60.72;101147.56;5076506;28;20028;-83
2023/04/15 05:23:48;;;;;;;0.10;0.10;;;;;;;7.89;60.87;101157.22;5076122;28;20094;-83
2023/04/15 05:26:14;;;;;;;0.10;0.10;;;;;;;7.90;61.26;101154.56;5075599;28;20043;-83
2023/04/15 05:28:40;;;;;;;0.10;0.10;;;;;;;7.92;61.31;101159.81;5076602;28;20478;-82
2023/04/15 05:31:06;;;;;;;0.10;0.10;;;;;;;7.93;61.79;101166.88;5076341;28;20017;-83
2023/04/15 05:33:32;;;;;;;0.03;0.03;;;;;;;7.95;61.96;101165.09;5075916;28;20530;-83
2023/04/15 05:35:58;;;;;;;0.10;0.10;;;;;;;7.98;61.08;101170.34;5075333;28;20046;-84
2023/04/15 05:38:25;;;;;;;0.10;0.10;;;;;;;8.01;61.18;101188.84;5068752;28;20087;-83
2023/04/15 05:40:51;;;;;;;0.10;0.10;;;;;;;8.03;62.31;101184.41;5073330;28;20082;-83
2023/04/15 05:43:17;;;;;;;0.20;0.20;;;;;;;8.07;62.08;101196.72;5070624;28;20047;-83
2023/04/15 05:45:43;;;;;;;0.10;0.10;;;;;;;8.11;62.14;101197.56;5072096;28;20330;-83
2023/04/15 05:48:09;;;;;;;0.10;0.10;;;;;;;8.16;62.27;101200.19;5074075;28;20059;-83
2023/04/15 05:50:35;;;;;;;0.10;0.10;;;;;;;8.19;62.77;101208.13;5072177;28;20025;-82
2023/04/15 05:53:01;;;;;;;0.10;0.10;;;;;;;8.25;62.35;101216.00;5074994;28;20088;-82
2023/04/15 05:55:27;;;;;;;0.38;0.38;;;;;;;8.29;61.87;101220.38;5075809;28;20024;-83
2023/04/15 05:57:53;;;;;;;0.10;0.10;;;;;;;8.34;62.58;101225.66;5069370;28;20036;-82
2023/04/15 06:00:20;;;;;;;0.15;0.15;;;;;;;8.39;62.70;101227.38;5073856;28;20025;-83
2023/04/15 06:02:46;;;;;;;0.10;0.10;;;;;;;8.46;62.58;101237.91;5072676;28;20032;-83
2023/04/15 06:05:12;;;;;;;0.13;0.13;;;;;;;8.51;63.17;101238.78;5075947;28;20032;-82
2023/04/15 06:07:38;;;;;;;0.10;0.10;;;;;;;8.58;62.96;101240.50;5073099;28;20103;-83
2023/04/15 06:10:06;;;;;;;0.10;0.10;;;;;;;8.63;63.29;101259.00;5072254;28;20111;-83
2023/04/15 06:12:32;;;;;;;0.20;0.20;;;;;;;8.67;63.96;101266.91;5075724;28;20487;-83
2023/04/15 06:14:58;;;;;;;0.10;0.10;;;;;;;8.76;62.87;101262.44;5067591;28;20104;-83
2023/04/15 06:17:24;;;;;;;0.32;0.32;;;;;;;8.84;62.89;101279.13;5075695;28;20056;-83
2023/04/15 06:19:54;;;;;;;0.10;0.10;;;;;;;8.90;63.66;101274.66;5074664;28;20054;-83
2023/04/15 06:22:21;;;;;;;0.10;0.10;;;;;;;8.98;63.54;101281.69;5072361;28;20035;-83
2023/04/15 06:24:50;;;;;;;0.10;0.10;;;;;;;9.06;63.21;101291.31;5072224;28;20027;-83
2023/04/15 06:27:16;;;;;;;0.10;0.10;;;;;;;9.13;64.18;101297.41;5076307;28;20032;-83
2023/04/15 06:29:42;;;;;;;0.10;0.10;;;;;;;9.22;62.75;101299.13;5075330;28;20033;-83
2023/04/15 06:32:08;;;;;;;0.10;0.10;;;;;;;9.28;63.54;101307.00;5073219;28;20025;-83
2023/04/15 06:34:34;;;;;;;0.10;0.10;;;;;;;9.34;63.43;101312.25;5074611;28;20112;-83
2023/04/15 06:37:00;;;;;;;0.10;0.10;;;;;;;9.45;62.38;101306.03;5075756;28;20012;-83
2023/04/15 06:39:27;;;;;;;0.10;0.10;;;;;;;9.54;62.98;101311.22;5074947;28;20455;-83
2023/04/15 06:41:53;;;;;;;0.20;0.20;;;;;;;9.64;62.72;101320.84;5074504;28;20044;-83
2023/04/15 06:44:19;;;;;;;0.10;0.10;;;;;;;9.72;63.27;101323.44;5076479;28;20111;-83
2023/04/15 06:46:45;;;;;;;0.30;0.30;;;;;;;9.81;63.00;101333.94;5076118;28;20040;-82
2023/04/15 06:49:11;;;;;;;0.10;0.10;;;;;;;9.89;62.94;101336.50;5078575;28;20048;-83
2023/04/15 06:51:37;;;;;;;0.10;0.10;;;;;;;9.96;62.62;101332.06;5078756;28;20024;-83
2023/04/15 06:54:05;;;;;;;0.10;0.10;;;;;;;10.00;62.39;101331.97;5070669;28;20087;-83
2023/04/15 06:56:32;;;;;;;0.10;0.10;;;;;;;10.10;62.27;101335.41;5069667;28;20088;-83
2023/04/15 06:58:58;;;;;;;0.20;0.20;;;;;;;10.18;61.84;101343.28;5072172;28;20056;-84
2023/04/15 07:01:24;;;;;;;0.20;0.20;;;;;;;10.26;61.82;101341.44;5071599;28;20028;-82
2023/04/15 07:03:51;;;;;;;0.10;0.10;;;;;;;10.29;62.32;101345.81;5069464;28;20490;-83
2023/04/15 07:06:17;;;;;;;0.00;0.00;;;;;;;10.39;62.93;101349.28;5071950;28;20032;-83
2023/04/15 07:08:43;;;;;;;0.10;0.10;;;;;;;10.49;62.24;101348.28;5066086;28;20116;-81
2023/04/15 07:11:09;;;;;;;0.10;0.10;;;;;;;10.55;62.64;101348.22;5067949;28;20024;-82
2023/04/15 07:13:35;;;;;;;0.10;0.10;;;;;;;10.65;61.66;101344.56;5071484;28;20043;-83
2023/04/15 07:16:02;;;;;;;0.28;0.28;;;;;;;10.73;61.41;101349.78;5072413;28;20039;-82
2023/04/15 07:18:28;;;;;;;0.45;0.40;;;;;;;10.82;61.91;101357.59;5075150;28;20028;-83
2023/04/15 07:20:55;;;;;;;0.10;0.10;;;;;;;10.92;61.81;101360.16;5068831;28;20020;-83
2023/04/15 07:23:21;;;;;;;0.10;0.10;;;;;;;10.97;62.39;101361.81;5075059;28;20060;-82
2023/04/15 07:25:48;;;;;;;0.10;0.10;;;;;;;11.08;62.07;101358.13;5062778;28;20032;-83
2023/04/15 07:28:14;;;;;;;0.10;0.10;;;;;;;11.15;61.29;101370.41;5056113;28;20458;-83
2023/04/15 07:30:40;;;;;;;0.57;0.40;;;;;;;11.24;61.42;101365.00;5072158;28;20403;-82
2023/04/15 07:33:06;;;;;;;0.10;0.10;;;;;;;11.33;61.09;101372.81;5069350;28;20088;-83
2023/04/15 07:35:32;;;;;;;0.10;0.10;;;;;;;11.43;60.53;101386.81;5065651;28;20028;-83
2023/04/15 07:37:58;;;;;;;0.10;0.10;;;;;;;11.53;60.94;101379.59;5079267;28;20417;-83
2023/04/15 07:40:25;;;;;;;0.40;0.40;;;;;;;11.60;60.45;101389.22;5077023;28;20470;-86
2023/04/15 07:42:51;;;;;;;0.10;0.10;;;;;;;11.71;61.11;101396.16;5067413;28;20059;-82
2023/04/15 07:45:17;;;;;;;0.15;0.15;;;;;;;11.75;61.00;101389.88;5076626;28;20032;-89
2023/04/15 07:47:43;;;;;;;0.10;0.10;;;;;;;11.88;60.91;101395.88;5072947;28;20028;-83
2023/04/15 07:50:10;;;;;;;0.90;0.63;;;;;;;11.96;60.35;101397.53;5067134;28;20043;-84
2023/04/15 07:52:38;;;;;;;1.30;1.20;;;;;;;12.11;60.51;101404.38;5071091;28;20024;-84
2023/04/15 07:55:08;;;;;;;0.08;0.08;;;;;;;12.22;59.70;101414.78;5079141;28;20051;-84
2023/04/15 07:57:35;;;;;;;0.47;0.30;;;;;;;12.33;59.54;101411.06;5083049;28;20506;-83
2023/04/15 08:00:05;;;;;;;0.10;0.10;;;;;;;12.43;59.98;101420.63;5074758;28;20045;-83
2023/04/15 08:02:32;;;;;;;0.60;0.60;;;;;;;12.51;59.47;101431.09;5078374;28;20027;-84
2023/04/15 08:04:58;;;;;;;0.10;0.10;;;;;;;12.62;59.15;101434.44;5070916;28;20042;-84
2023/04/15 08:07:25;;;;;;;0.30;0.25;;;;;;;12.71;59.23;101441.34;5070430;28;20033;-84
2023/04/15 08:09:51;;;;;;;0.10;0.10;;;;;;;12.85;58.91;101443.78;5063180;28;20052;-84
2023/04/15 08:12:17;;;;;;;0.10;0.10;;;;;;;12.91;58.42;101436.53;5067071;28;20029;-83
2023/04/15 08:14:43;;;;;;;0.10;0.10;;;;;;;12.99;58.78;101449.66;5073318;28;20502;-83
2023/04/15 08:17:09;;;;;;;0.10;0.10;;;;;;;13.03;57.96;101447.81;5075667;28;20023;-84
2023/04/15 08:19:35;;;;;;;0.00;0.00;;;;;;;13.17;57.94;101450.19;5072678;28;20024;-83
2023/04/15 08:22:02;;;;;;;0.13;0.13;;;;;;;13.22;57.93;101456.28;5078013;28;20447;-84
2023/04/15 08:24:29;;;;;;;0.30;0.30;;;;;;;13.27;57.95;101460.63;5078721;28;20024;-84
2023/04/15 08:26:56;;;;;;;0.10;0.10;;;;;;;13.34;57.27;101455.16;5070255;28;20053;-83
2023/04/15 08:29:22;;;;;;;0.10;0.10;;;;;;;13.34;56.59;101460.50;5069566;28;20503;-84
2023/04/15 08:31:48;;;;;;;1.52;0.90;;;;;;;13.51;57.24;101462.81;5078580;28;20108;-83
2023/04/15 08:34:15;;;;;;;0.65;0.65;;;;;;;13.63;56.76;101474.97;5067673;28;20025;-83
2023/04/15 08:36:42;;;;;;;0.10;0.10;;;;;;;13.71;56.33;101471.22;5076043;28;20029;-84
2023/04/15 08:39:08;;;;;;;0.85;0.65;;;;;;;13.84;56.57;101474.47;5070975;28;20036;-84
2023/04/15 08:41:46;;;;;;;0.10;0.10;;;;;;;13.99;56.28;101475.03;5071872;28;20047;-84
2023/04/15 08:44:13;;;;;;;0.13;0.13;;;;;;;14.11;55.97;101477.38;5075012;28;20413;-84
2023/04/15 08:46:41;;;;;;;0.10;0.10;;;;;;;14.18;55.97;101487.00;5077397;28;20044;-84
2023/04/15 08:49:12;;;;;;;0.32;0.32;;;;;;;14.29;54.64;101488.50;5057924;28;20565;-84
2023/04/15 08:51:40;;;;;;;0.20;0.20;;;;;;;14.40;54.79;101490.00;5067386;28;20083;-84
2023/04/15 08:54:08;;;;;;;0.52;0.52;;;;;;;14.51;54.94;101500.34;5070938;28;20025;-84
2023/04/15 08:56:35;;;;;;;1.08;1.02;;;;;;;14.61;53.61;101505.47;5078741;28;20085;-85
2023/04/15 08:59:03;;;;;;;0.10;0.10;;;;;;;14.71;53.83;101515.00;5067715;28;20061;-85
2023/04/15 09:01:32;;;;;;;0.10;0.10;;;;;;;14.81;54.12;101511.16;5077218;28;20058;-83
2023/04/15 09:04:01;;;;;;;0.60;0.60;;;;;;;14.88;53.04;101511.88;5070265;28;20040;-84
2023/04/15 09:06:27;;;;;;;0.10;0.10;;;;;;;15.01;53.12;101520.41;5076250;28;20031;-84
2023/04/15 09:08:53;;;;;;;0.10;0.10;;;;;;;15.12;52.99;101518.31;5076576;28;20111;-84
2023/04/15 09:11:21;;;;;;;0.10;0.10;;;;;;;15.21;52.79;101525.19;5075472;28;20020;-84
2023/04/15 09:13:53;;;;;;;0.10;0.10;;;;;;;15.29;52.46;101524.97;5069040;28;20036;-84
2023/04/15 09:16:19;;;;;;;0.10;0.10;;;;;;;15.24;50.18;101529.56;5079984;28;20514;-83
2023/04/15 09:18:45;;;;;;;0.10;0.10;;;;;;;15.28;49.88;101534.78;5075864;28;20090;-83
2023/04/15 09:21:14;;;;;;;0.10;0.10;;;;;;;15.37;50.82;101534.50;5076492;28;20025;-84
2023/04/15 09:23:59;;;;;;;0.10;0.10;;;;;;;15.34;50.19;101545.28;5087482;28;20021;-83
2023/04/15 09:29:19;;;;;;;0.10;0.10;;;;;;;15.54;49.40;101551.84;5110579;27;20413;-82
2023/04/15 09:32:36;;;;;;;;;;;;;;;;;;;;;
2023/04/15 09:35:12;;;;;;;0.05;0.05;;;;;;;15.61;49.23;101563.22;5078584;28;20031;-85
2023/04/15 09:37:38;;;;;;;0.10;0.10;;;;;;;15.68;48.50;101565.66;5090175;28;20103;-85
2023/04/15 09:40:05;;;;;;;0.10;0.10;;;;;;;15.75;48.61;101558.34;5089235;28;20522;-84
2023/04/15 09:42:53;;;;;;;0.10;0.10;;;;;;;15.81;48.15;101563.50;5088011;28;20108;-84
2023/04/15 09:45:19;;;;;;;0.13;0.13;;;;;;;15.92;48.68;101567.69;5087931;28;20085;-85
2023/04/15 09:47:51;;;;;;;0.10;0.10;;;;;;;16.04;47.85;101566.41;5087519;28;20031;-83
2023/04/15 09:50:19;;;;;;;0.10;0.10;;;;;;;16.09;48.10;101569.84;5085862;28;20047;-85
2023/04/15 09:52:46;;;;;;;0.05;0.05;;;;;;;16.12;46.62;101575.94;5078336;28;20025;-85
2023/04/15 09:55:14;;;;;;;0.10;0.10;;;;;;;16.16;47.27;101572.25;5089755;28;20097;-85
2023/04/15 09:57:40;;;;;;;0.38;0.38;;;;;;;16.27;47.71;101579.91;5083065;28;20024;-84
2023/04/15 10:01:18;;;;;;;0.10;0.10;;;;;;;16.39;48.05;101567.09;5081406;28;20383;-84
2023/04/15 10:03:28;;;;;;;0.20;0.20;;;;;;;16.44;45.98;101575.84;5068529;28;20036;-85
2023/04/15 10:05:56;;;;;;;0.10;0.10;;;;;;;16.50;47.26;101578.31;5088209;28;20054;-85
2023/04/15 10:08:26;;;;;;;0.10;0.10;;;;;;;16.55;46.54;101583.50;5089342;28;20083;-85
2023/04/15 10:10:59;;;;;;;0.03;0.03;;;;;;;16.47;45.69;101573.06;5089380;28;20032;-84
2023/04/15 10:13:31;;;;;;;0.10;0.10;;;;;;;16.45;46.07;101599.00;5092582;28;20024;-85
2023/04/15 10:16:06;;;;;;;0.32;0.32;;;;;;;16.47;45.65;101594.44;5091692;28;20028;-85
2023/04/15 10:18:36;;;;;;;0.10;0.10;;;;;;;16.53;45.26;101591.56;5094994;28;20013;-85
2023/04/15 10:21:04;;;;;;;0.20;0.20;;;;;;;16.57;45.37;101592.34;5093204;28;20036;-83
2023/04/15 10:23:33;;;;;;;0.10;0.10;;;;;;;16.55;44.78;101595.09;5092364;28;20024;-84
2023/04/15 10:26:11;;;;;;;0.10;0.10;;;;;;;16.61;45.79;101599.34;5084682;28;20036;-84
2023/04/15 10:28:38;;;;;;;0.00;0.00;;;;;;;16.55;45.88;101604.88;5093607;28;20024;-84
2023/04/15 10:31:05;;;;;;;0.10;0.10;;;;;;;16.56;46.01;101606.66;5092252;28;20052;-84
2023/04/15 10:33:31;;;;;;;0.20;0.20;;;;;;;16.59;45.90;101606.56;5090515;28;20096;-84
2023/04/15 10:35:58;;;;;;;0.05;0.05;;;;;;;16.67;47.06;101612.50;5094347;28;20093;-83
2023/04/15 10:38:42;;;;;;;0.10;0.10;;;;;;;16.82;45.90;101612.00;5092440;28;20059;-84
2023/04/15 10:41:26;;;;;;;0.03;0.03;;;;;;;16.92;46.04;101611.72;5081406;28;20089;-83
2023/04/15 10:46:45;;;;;;;0.10;0.10;;;;;;;17.08;46.56;101615.59;5074634;28;20379;-83
2023/04/15 10:49:13;;;;;;;;;;;;;;;17.19;45.61;101619.72;5055737;28;20052;-84
2023/04/15 10:51:44;;;;;;;0.10;0.10;;;;;;;17.21;45.76;101621.41;5052419;28;19909;-85
2023/04/15 10:54:16;;;;;;;0.10;0.10;;;;;;;17.37;46.00;101624.44;5043226;28;20060;-84
2023/04/15 10:56:44;;;;;;;0.10;0.10;;;;;;;17.42;46.15;101626.91;5036918;28;20029;-83
2023/04/15 10:59:10;;;;;;;0.10;0.10;;;;;;;17.45;45.63;101625.00;5044917;28;20125;-81
2023/04/15 11:01:53;;;;;;;0.10;0.10;;;;;;;17.62;46.02;101626.22;5047043;28;20029;-81
2023/04/15 11:04:58;;;;;;;0.10;0.10;;;;;;;17.63;44.96;101633.31;5034422;28;20030;-82
2023/04/15 11:07:56;;;;;;;0.63;0.63;;;;;;;17.58;45.32;101636.16;5035805;28;20132;-85
2023/04/15 11:16:07;;;;;;;0.10;0.10;;;;;;;17.50;44.41;101642.75;5107670;27;20904;-82
2023/04/15 11:18:35;;;;;;;0.10;0.10;;;;;;;17.56;44.92;101647.88;5069756;28;20032;-80
2023/04/15 11:21:04;;;;;;;0.43;0.43;;;;;;;17.63;45.55;101654.72;5068822;28;20033;-82
2023/04/15 11:23:38;;;;;;;0.10;0.10;;;;;;;17.78;46.14;101659.56;5071496;28;20057;-83
2023/04/15 11:26:09;;;;;;;0.40;0.40;;;;;;;17.87;45.58;101652.06;5068047;28;20033;-83
2023/04/15 11:28:36;;;;;;;0.10;0.10;;;;;;;17.82;45.59;101654.06;5067597;28;20064;-81
2023/04/15 11:31:09;;;;;;;0.10;0.10;;;;;;;17.86;45.91;101658.41;5071858;28;20499;-83
2023/04/15 11:33:35;;;;;;;0.10;0.10;;;;;;;17.88;45.64;101670.81;5071908;28;20078;-84
2023/04/15 11:36:03;;;;;;;0.50;0.50;;;;;;;17.84;44.81;101668.28;5063643;28;20044;-82
2023/04/15 11:38:30;;;;;;;0.40;0.40;;;;;;;17.78;44.99;101674.75;5071271;28;20530;-81
2023/04/15 11:40:59;;;;;;;0.10;0.10;;;;;;;17.85;45.04;101675.41;5067256;28;20089;-83
2023/04/15 11:43:30;;;;;;;0.10;0.10;;;;;;;17.90;45.29;101673.41;5064805;28;20075;-83
2023/04/15 11:45:59;;;;;;;0.10;0.10;;;;;;;17.99;45.12;101666.88;5063246;28;20025;-84